sensor_id;sensor_type;location;lat;lon;timestamp;temperature;humidity
42199;DHT22;27868;45.184;5.786;2023-05-10T00:01:50;17.20;95.20
42199;DHT22;27868;45.184;5.786;2023-05-10T00:04:34;17.20;95.30
42199;DHT22;27868;45.184;5.786;2023-05-10T00:07:19;17.20;95.40
42199;DHT22;27868;45.184;5.786;2023-05-10T00:10:04;17.10;95.50
42199;DHT22;27868;45.184;5.786;2023-05-10T00:12:48;17.10;95.60
42199;DHT22;27868;45.184;5.786;2023-05-10T00:15:33;17.10;95.90
42199;DHT22;27868;45.184;5.786;2023-05-10T00:18:19;17.00;97.10
42199;DHT22;27868;45.184;5.786;2023-05-10T00:21:03;16.90;96.80
42199;DHT22;27868;45.184;5.786;2023-05-10T00:23:48;17.00;96.70
42199;DHT22;27868;45.184;5.786;2023-05-10T00:26:33;17.00;96.70
42199;DHT22;27868;45.184;5.786;2023-05-10T00:29:17;17.00;96.60
42199;DHT22;27868;45.184;5.786;2023-05-10T00:32:02;17.00;96.10
42199;DHT22;27868;45.184;5.786;2023-05-10T00:34:46;17.00;95.80
42199;DHT22;27868;45.184;5.786;2023-05-10T00:37:31;17.00;95.60
42199;DHT22;27868;45.184;5.786;2023-05-10T00:40:15;17.00;95.50
42199;DHT22;27868;45.184;5.786;2023-05-10T00:43:00;17.00;95.40
42199;DHT22;27868;45.184;5.786;2023-05-10T00:45:45;17.00;95.40
42199;DHT22;27868;45.184;5.786;2023-05-10T00:48:30;17.00;95.60
42199;DHT22;27868;45.184;5.786;2023-05-10T00:51:14;17.00;95.60
42199;DHT22;27868;45.184;5.786;2023-05-10T00:53:59;16.90;95.70
42199;DHT22;27868;45.184;5.786;2023-05-10T00:56:43;16.90;95.70
42199;DHT22;27868;45.184;5.786;2023-05-10T00:59:33;16.90;95.70
42199;DHT22;27868;45.184;5.786;2023-05-10T01:02:17;17.00;95.60
42199;DHT22;27868;45.184;5.786;2023-05-10T01:05:02;16.90;95.60
42199;DHT22;27868;45.184;5.786;2023-05-10T01:07:47;16.90;95.70
42199;DHT22;27868;45.184;5.786;2023-05-10T01:10:32;16.90;95.80
42199;DHT22;27868;45.184;5.786;2023-05-10T01:13:18;16.90;95.80
42199;DHT22;27868;45.184;5.786;2023-05-10T01:16:07;16.90;95.90
42199;DHT22;27868;45.184;5.786;2023-05-10T01:18:51;16.90;95.90
42199;DHT22;27868;45.184;5.786;2023-05-10T01:33:46;16.90;95.70
42199;DHT22;27868;45.184;5.786;2023-05-10T01:36:32;16.80;95.60
42199;DHT22;27868;45.184;5.786;2023-05-10T01:42:25;16.80;95.50
42199;DHT22;27868;45.184;5.786;2023-05-10T01:45:19;16.80;95.50
42199;DHT22;27868;45.184;5.786;2023-05-10T01:48:10;16.80;95.40
42199;DHT22;27868;45.184;5.786;2023-05-10T01:50:55;16.80;95.50
42199;DHT22;27868;45.184;5.786;2023-05-10T01:53:40;16.70;95.40
42199;DHT22;27868;45.184;5.786;2023-05-10T01:56:26;16.70;95.40
42199;DHT22;27868;45.184;5.786;2023-05-10T01:59:13;16.70;95.40
42199;DHT22;27868;45.184;5.786;2023-05-10T02:01:59;16.70;95.40
42199;DHT22;27868;45.184;5.786;2023-05-10T02:04:45;16.70;95.40
42199;DHT22;27868;45.184;5.786;2023-05-10T02:07:30;16.70;95.40
42199;DHT22;27868;45.184;5.786;2023-05-10T02:10:16;16.70;95.40
42199;DHT22;27868;45.184;5.786;2023-05-10T02:13:02;16.70;95.30
42199;DHT22;27868;45.184;5.786;2023-05-10T02:15:47;16.70;95.30
42199;DHT22;27868;45.184;5.786;2023-05-10T02:18:32;16.60;95.30
42199;DHT22;27868;45.184;5.786;2023-05-10T02:21:17;16.60;95.40
42199;DHT22;27868;45.184;5.786;2023-05-10T02:24:03;16.60;95.50
42199;DHT22;27868;45.184;5.786;2023-05-10T02:26:48;16.60;95.60
42199;DHT22;27868;45.184;5.786;2023-05-10T02:29:34;16.60;95.30
42199;DHT22;27868;45.184;5.786;2023-05-10T02:32:21;16.50;95.40
42199;DHT22;27868;45.184;5.786;2023-05-10T02:35:06;16.50;95.30
42199;DHT22;27868;45.184;5.786;2023-05-10T02:37:51;16.50;95.30
42199;DHT22;27868;45.184;5.786;2023-05-10T02:40:36;16.50;95.40
42199;DHT22;27868;45.184;5.786;2023-05-10T02:43:22;16.50;95.50
42199;DHT22;27868;45.184;5.786;2023-05-10T02:46:07;16.50;95.60
42199;DHT22;27868;45.184;5.786;2023-05-10T02:48:51;16.50;95.60
42199;DHT22;27868;45.184;5.786;2023-05-10T02:51:37;16.50;95.50
42199;DHT22;27868;45.184;5.786;2023-05-10T02:54:27;16.50;95.40
42199;DHT22;27868;45.184;5.786;2023-05-10T02:57:15;16.50;95.40
42199;DHT22;27868;45.184;5.786;2023-05-10T03:00:01;16.40;95.50
42199;DHT22;27868;45.184;5.786;2023-05-10T03:02:45;16.40;95.50
42199;DHT22;27868;45.184;5.786;2023-05-10T03:05:30;16.40;95.50
42199;DHT22;27868;45.184;5.786;2023-05-10T03:08:14;16.40;95.60
42199;DHT22;27868;45.184;5.786;2023-05-10T03:11:12;16.40;95.70
42199;DHT22;27868;45.184;5.786;2023-05-10T03:14:20;16.40;95.70
42199;DHT22;27868;45.184;5.786;2023-05-10T03:19:54;16.40;95.60
42199;DHT22;27868;45.184;5.786;2023-05-10T03:22:46;16.40;95.60
42199;DHT22;27868;45.184;5.786;2023-05-10T03:25:31;16.40;95.60
42199;DHT22;27868;45.184;5.786;2023-05-10T03:28:16;16.40;95.60
42199;DHT22;27868;45.184;5.786;2023-05-10T03:31:02;16.40;95.50
42199;DHT22;27868;45.184;5.786;2023-05-10T03:33:50;16.30;95.50
42199;DHT22;27868;45.184;5.786;2023-05-10T03:36:35;16.30;95.50
42199;DHT22;27868;45.184;5.786;2023-05-10T03:39:20;16.30;95.50
42199;DHT22;27868;45.184;5.786;2023-05-10T03:42:05;16.30;95.60
42199;DHT22;27868;45.184;5.786;2023-05-10T03:44:50;16.30;95.60
42199;DHT22;27868;45.184;5.786;2023-05-10T03:47:34;16.30;95.60
42199;DHT22;27868;45.184;5.786;2023-05-10T03:50:19;16.30;95.70
42199;DHT22;27868;45.184;5.786;2023-05-10T03:53:03;16.20;95.60
42199;DHT22;27868;45.184;5.786;2023-05-10T03:55:48;16.30;95.70
42199;DHT22;27868;45.184;5.786;2023-05-10T03:58:32;16.30;95.60
42199;DHT22;27868;45.184;5.786;2023-05-10T04:01:17;16.20;95.60
42199;DHT22;27868;45.184;5.786;2023-05-10T04:04:01;16.20;95.60
42199;DHT22;27868;45.184;5.786;2023-05-10T04:06:46;16.20;95.60
42199;DHT22;27868;45.184;5.786;2023-05-10T04:09:30;16.20;95.60
42199;DHT22;27868;45.184;5.786;2023-05-10T04:12:15;16.20;95.60
42199;DHT22;27868;45.184;5.786;2023-05-10T04:15:00;16.20;95.50
42199;DHT22;27868;45.184;5.786;2023-05-10T04:17:45;16.20;95.50
42199;DHT22;27868;45.184;5.786;2023-05-10T04:20:29;16.20;95.60
42199;DHT22;27868;45.184;5.786;2023-05-10T04:23:16;16.20;95.60
42199;DHT22;27868;45.184;5.786;2023-05-10T04:26:01;16.20;95.70
42199;DHT22;27868;45.184;5.786;2023-05-10T04:28:45;16.20;95.70
42199;DHT22;27868;45.184;5.786;2023-05-10T04:31:30;16.10;95.80
42199;DHT22;27868;45.184;5.786;2023-05-10T04:34:14;16.20;95.80
42199;DHT22;27868;45.184;5.786;2023-05-10T04:36:59;16.20;95.80
42199;DHT22;27868;45.184;5.786;2023-05-10T04:39:44;16.20;95.80
42199;DHT22;27868;45.184;5.786;2023-05-10T04:42:28;16.20;95.90
42199;DHT22;27868;45.184;5.786;2023-05-10T04:45:13;16.10;95.80
42199;DHT22;27868;45.184;5.786;2023-05-10T04:47:58;16.10;95.80
42199;DHT22;27868;45.184;5.786;2023-05-10T04:50:43;16.10;95.90
42199;DHT22;27868;45.184;5.786;2023-05-10T04:53:27;16.20;95.90
42199;DHT22;27868;45.184;5.786;2023-05-10T04:56:12;16.20;95.90
42199;DHT22;27868;45.184;5.786;2023-05-10T04:58:57;16.10;95.90
42199;DHT22;27868;45.184;5.786;2023-05-10T05:01:41;16.20;95.90
42199;DHT22;27868;45.184;5.786;2023-05-10T05:04:26;16.20;95.90
42199;DHT22;27868;45.184;5.786;2023-05-10T05:07:11;16.20;95.90
42199;DHT22;27868;45.184;5.786;2023-05-10T05:09:55;16.20;96.00
42199;DHT22;27868;45.184;5.786;2023-05-10T05:12:40;16.20;96.00
42199;DHT22;27868;45.184;5.786;2023-05-10T05:15:24;16.20;96.00
42199;DHT22;27868;45.184;5.786;2023-05-10T05:18:09;16.20;96.10
42199;DHT22;27868;45.184;5.786;2023-05-10T05:20:53;16.20;96.20
42199;DHT22;27868;45.184;5.786;2023-05-10T05:23:38;16.20;96.20
42199;DHT22;27868;45.184;5.786;2023-05-10T05:26:22;16.20;96.10
42199;DHT22;27868;45.184;5.786;2023-05-10T05:29:07;16.20;96.10
42199;DHT22;27868;45.184;5.786;2023-05-10T05:31:52;16.20;96.10
42199;DHT22;27868;45.184;5.786;2023-05-10T05:34:36;16.20;96.10
42199;DHT22;27868;45.184;5.786;2023-05-10T05:37:21;16.30;96.20
42199;DHT22;27868;45.184;5.786;2023-05-10T05:40:05;16.20;96.20
42199;DHT22;27868;45.184;5.786;2023-05-10T05:42:50;16.30;96.20
42199;DHT22;27868;45.184;5.786;2023-05-10T05:45:35;16.30;96.20
42199;DHT22;27868;45.184;5.786;2023-05-10T05:48:19;16.20;96.20
42199;DHT22;27868;45.184;5.786;2023-05-10T05:51:04;16.30;96.30
42199;DHT22;27868;45.184;5.786;2023-05-10T05:53:48;16.30;96.30
42199;DHT22;27868;45.184;5.786;2023-05-10T05:56:33;16.30;96.40
42199;DHT22;27868;45.184;5.786;2023-05-10T05:59:17;16.30;96.40
42199;DHT22;27868;45.184;5.786;2023-05-10T06:02:02;16.30;96.30
42199;DHT22;27868;45.184;5.786;2023-05-10T06:04:47;16.30;96.10
42199;DHT22;27868;45.184;5.786;2023-05-10T06:07:31;16.30;95.90
42199;DHT22;27868;45.184;5.786;2023-05-10T06:10:16;16.40;95.60
42199;DHT22;27868;45.184;5.786;2023-05-10T06:13:00;16.40;95.40
42199;DHT22;27868;45.184;5.786;2023-05-10T06:15:45;16.30;95.30
42199;DHT22;27868;45.184;5.786;2023-05-10T06:18:29;16.30;95.20
42199;DHT22;27868;45.184;5.786;2023-05-10T06:21:14;16.30;95.30
42199;DHT22;27868;45.184;5.786;2023-05-10T06:23:59;16.30;95.40
42199;DHT22;27868;45.184;5.786;2023-05-10T06:26:43;16.20;95.40
42199;DHT22;27868;45.184;5.786;2023-05-10T06:29:28;16.20;95.70
42199;DHT22;27868;45.184;5.786;2023-05-10T06:32:12;16.20;95.50
42199;DHT22;27868;45.184;5.786;2023-05-10T06:34:57;16.20;95.70
42199;DHT22;27868;45.184;5.786;2023-05-10T06:37:41;16.20;95.70
42199;DHT22;27868;45.184;5.786;2023-05-10T06:40:26;16.20;95.70
42199;DHT22;27868;45.184;5.786;2023-05-10T06:43:10;16.20;95.40
42199;DHT22;27868;45.184;5.786;2023-05-10T06:45:55;16.10;95.40
42199;DHT22;27868;45.184;5.786;2023-05-10T06:48:39;16.20;95.60
42199;DHT22;27868;45.184;5.786;2023-05-10T06:51:24;16.10;95.60
42199;DHT22;27868;45.184;5.786;2023-05-10T06:54:09;16.10;95.50
42199;DHT22;27868;45.184;5.786;2023-05-10T06:56:53;16.20;95.50
42199;DHT22;27868;45.184;5.786;2023-05-10T06:59:38;16.20;95.30
42199;DHT22;27868;45.184;5.786;2023-05-10T07:02:22;16.20;95.20
42199;DHT22;27868;45.184;5.786;2023-05-10T07:05:07;16.20;95.20
42199;DHT22;27868;45.184;5.786;2023-05-10T07:07:52;16.20;95.30
42199;DHT22;27868;45.184;5.786;2023-05-10T07:10:37;16.20;95.40
42199;DHT22;27868;45.184;5.786;2023-05-10T07:13:21;16.30;95.60
42199;DHT22;27868;45.184;5.786;2023-05-10T07:16:06;16.30;95.60
42199;DHT22;27868;45.184;5.786;2023-05-10T07:18:51;16.30;95.60
42199;DHT22;27868;45.184;5.786;2023-05-10T07:21:37;16.40;95.40
42199;DHT22;27868;45.184;5.786;2023-05-10T07:24:21;16.30;95.20
42199;DHT22;27868;45.184;5.786;2023-05-10T07:27:06;16.40;94.90
42199;DHT22;27868;45.184;5.786;2023-05-10T07:29:51;16.40;95.00
42199;DHT22;27868;45.184;5.786;2023-05-10T07:32:35;16.30;95.00
42199;DHT22;27868;45.184;5.786;2023-05-10T07:35:20;16.30;95.20
42199;DHT22;27868;45.184;5.786;2023-05-10T07:38:05;16.30;94.90
42199;DHT22;27868;45.184;5.786;2023-05-10T07:40:49;16.30;95.10
42199;DHT22;27868;45.184;5.786;2023-05-10T07:43:34;16.40;95.20
42199;DHT22;27868;45.184;5.786;2023-05-10T07:46:18;16.30;95.40
42199;DHT22;27868;45.184;5.786;2023-05-10T07:49:04;16.40;95.50
42199;DHT22;27868;45.184;5.786;2023-05-10T07:51:48;16.50;95.50
42199;DHT22;27868;45.184;5.786;2023-05-10T07:54:33;16.50;95.40
42199;DHT22;27868;45.184;5.786;2023-05-10T07:57:18;16.60;95.50
42199;DHT22;27868;45.184;5.786;2023-05-10T08:00:02;16.60;95.40
42199;DHT22;27868;45.184;5.786;2023-05-10T08:02:47;16.60;95.20
42199;DHT22;27868;45.184;5.786;2023-05-10T08:05:31;16.60;95.10
42199;DHT22;27868;45.184;5.786;2023-05-10T08:08:16;16.70;95.20
42199;DHT22;27868;45.184;5.786;2023-05-10T08:11:00;16.70;95.20
42199;DHT22;27868;45.184;5.786;2023-05-10T08:13:45;16.70;94.80
42199;DHT22;27868;45.184;5.786;2023-05-10T08:16:29;16.70;94.60
42199;DHT22;27868;45.184;5.786;2023-05-10T08:19:14;16.70;94.50
42199;DHT22;27868;45.184;5.786;2023-05-10T08:22:03;16.70;94.60
42199;DHT22;27868;45.184;5.786;2023-05-10T08:24:47;16.80;94.80
42199;DHT22;27868;45.184;5.786;2023-05-10T08:27:32;16.80;94.80
42199;DHT22;27868;45.184;5.786;2023-05-10T08:30:17;16.90;94.80
42199;DHT22;27868;45.184;5.786;2023-05-10T08:33:01;16.90;94.80
42199;DHT22;27868;45.184;5.786;2023-05-10T08:35:46;17.00;94.80
42199;DHT22;27868;45.184;5.786;2023-05-10T08:38:30;17.00;94.80
42199;DHT22;27868;45.184;5.786;2023-05-10T08:41:15;17.10;94.60
42199;DHT22;27868;45.184;5.786;2023-05-10T08:43:59;17.10;94.40
42199;DHT22;27868;45.184;5.786;2023-05-10T08:46:48;17.20;94.40
42199;DHT22;27868;45.184;5.786;2023-05-10T08:49:35;17.20;94.30
42199;DHT22;27868;45.184;5.786;2023-05-10T08:52:21;17.20;94.20
42199;DHT22;27868;45.184;5.786;2023-05-10T08:55:05;17.20;94.00
42199;DHT22;27868;45.184;5.786;2023-05-10T08:57:50;17.30;93.90
42199;DHT22;27868;45.184;5.786;2023-05-10T09:00:35;17.30;94.00
42199;DHT22;27868;45.184;5.786;2023-05-10T09:03:20;17.40;93.90
42199;DHT22;27868;45.184;5.786;2023-05-10T09:06:04;17.40;93.10
42199;DHT22;27868;45.184;5.786;2023-05-10T09:08:49;17.40;91.70
42199;DHT22;27868;45.184;5.786;2023-05-10T09:11:33;17.40;92.80
42199;DHT22;27868;45.184;5.786;2023-05-10T09:14:18;17.50;92.70
42199;DHT22;27868;45.184;5.786;2023-05-10T09:17:02;17.50;92.70
42199;DHT22;27868;45.184;5.786;2023-05-10T09:19:47;17.50;92.30
42199;DHT22;27868;45.184;5.786;2023-05-10T09:22:32;17.60;91.80
42199;DHT22;27868;45.184;5.786;2023-05-10T09:25:17;17.70;91.20
42199;DHT22;27868;45.184;5.786;2023-05-10T09:28:02;17.70;90.80
42199;DHT22;27868;45.184;5.786;2023-05-10T09:30:52;17.70;91.30
42199;DHT22;27868;45.184;5.786;2023-05-10T09:33:44;17.70;91.60
42199;DHT22;27868;45.184;5.786;2023-05-10T09:36:28;17.90;90.50
42199;DHT22;27868;45.184;5.786;2023-05-10T09:39:13;17.90;90.90
42199;DHT22;27868;45.184;5.786;2023-05-10T09:41:58;17.90;90.90
42199;DHT22;27868;45.184;5.786;2023-05-10T09:44:43;18.00;90.80
42199;DHT22;27868;45.184;5.786;2023-05-10T09:47:33;17.90;90.30
42199;DHT22;27868;45.184;5.786;2023-05-10T09:50:18;18.00;90.60
42199;DHT22;27868;45.184;5.786;2023-05-10T09:53:03;18.00;90.60
42199;DHT22;27868;45.184;5.786;2023-05-10T09:55:48;18.10;88.90
42199;DHT22;27868;45.184;5.786;2023-05-10T09:58:35;18.10;84.90
42199;DHT22;27868;45.184;5.786;2023-05-10T10:01:21;18.00;88.20
42199;DHT22;27868;45.184;5.786;2023-05-10T10:04:10;18.00;89.00
42199;DHT22;27868;45.184;5.786;2023-05-10T10:06:58;18.00;88.70
42199;DHT22;27868;45.184;5.786;2023-05-10T10:09:43;18.00;88.70
42199;DHT22;27868;45.184;5.786;2023-05-10T10:12:28;17.90;88.50
42199;DHT22;27868;45.184;5.786;2023-05-10T10:15:13;18.00;89.20
42199;DHT22;27868;45.184;5.786;2023-05-10T10:17:57;18.00;87.80
42199;DHT22;27868;45.184;5.786;2023-05-10T10:20:43;18.10;87.90
42199;DHT22;27868;45.184;5.786;2023-05-10T10:23:27;18.30;87.60
42199;DHT22;27868;45.184;5.786;2023-05-10T10:26:12;18.20;86.50
42199;DHT22;27868;45.184;5.786;2023-05-10T10:29:00;18.30;85.20
42199;DHT22;27868;45.184;5.786;2023-05-10T10:31:47;18.20;85.90
42199;DHT22;27868;45.184;5.786;2023-05-10T10:34:34;18.20;85.90
42199;DHT22;27868;45.184;5.786;2023-05-10T10:37:19;18.20;84.80
42199;DHT22;27868;45.184;5.786;2023-05-10T10:40:23;18.30;85.20
42199;DHT22;27868;45.184;5.786;2023-05-10T10:43:25;18.30;84.40
42199;DHT22;27868;45.184;5.786;2023-05-10T10:46:17;18.30;83.80
42199;DHT22;27868;45.184;5.786;2023-05-10T10:49:09;18.40;83.60
42199;DHT22;27868;45.184;5.786;2023-05-10T10:55:09;18.70;83.40
42199;DHT22;27868;45.184;5.786;2023-05-10T10:57:55;18.90;82.20
42199;DHT22;27868;45.184;5.786;2023-05-10T11:00:48;18.90;81.60
42199;DHT22;27868;45.184;5.786;2023-05-10T11:03:33;18.90;81.40
42199;DHT22;27868;45.184;5.786;2023-05-10T11:06:17;19.00;82.20
42199;DHT22;27868;45.184;5.786;2023-05-10T11:09:12;19.00;83.10
42199;DHT22;27868;45.184;5.786;2023-05-10T11:11:57;19.20;80.20
42199;DHT22;27868;45.184;5.786;2023-05-10T11:14:48;19.30;79.70
42199;DHT22;27868;45.184;5.786;2023-05-10T11:17:34;19.40;74.70
42199;DHT22;27868;45.184;5.786;2023-05-10T11:20:19;19.50;75.80
42199;DHT22;27868;45.184;5.786;2023-05-10T11:23:13;19.60;76.70
42199;DHT22;27868;45.184;5.786;2023-05-10T11:26:00;19.50;77.70
42199;DHT22;27868;45.184;5.786;2023-05-10T11:28:46;19.50;79.00
42199;DHT22;27868;45.184;5.786;2023-05-10T11:31:31;19.50;79.40
42199;DHT22;27868;45.184;5.786;2023-05-10T11:34:31;19.50;78.00
42199;DHT22;27868;45.184;5.786;2023-05-10T11:37:17;19.70;76.70
42199;DHT22;27868;45.184;5.786;2023-05-10T11:40:02;19.70;77.10
42199;DHT22;27868;45.184;5.786;2023-05-10T11:42:47;20.00;77.70
42199;DHT22;27868;45.184;5.786;2023-05-10T11:45:32;20.30;73.50
42199;DHT22;27868;45.184;5.786;2023-05-10T11:48:17;20.40;73.50
42199;DHT22;27868;45.184;5.786;2023-05-10T11:51:06;20.30;73.10
42199;DHT22;27868;45.184;5.786;2023-05-10T11:53:55;20.30;73.90
42199;DHT22;27868;45.184;5.786;2023-05-10T11:56:40;20.40;74.20
42199;DHT22;27868;45.184;5.786;2023-05-10T11:59:24;20.50;72.90
42199;DHT22;27868;45.184;5.786;2023-05-10T12:02:10;20.40;71.30
42199;DHT22;27868;45.184;5.786;2023-05-10T12:04:54;20.40;70.90
42199;DHT22;27868;45.184;5.786;2023-05-10T12:07:39;20.30;71.50
42199;DHT22;27868;45.184;5.786;2023-05-10T12:10:25;20.10;70.90
42199;DHT22;27868;45.184;5.786;2023-05-10T12:13:11;20.00;72.50
42199;DHT22;27868;45.184;5.786;2023-05-10T12:15:59;19.90;74.20
42199;DHT22;27868;45.184;5.786;2023-05-10T12:18:57;19.80;75.20
42199;DHT22;27868;45.184;5.786;2023-05-10T12:21:42;19.60;75.90
42199;DHT22;27868;45.184;5.786;2023-05-10T12:24:26;19.60;74.80
42199;DHT22;27868;45.184;5.786;2023-05-10T12:27:11;19.40;73.40
42199;DHT22;27868;45.184;5.786;2023-05-10T12:29:58;19.30;73.70
42199;DHT22;27868;45.184;5.786;2023-05-10T12:32:43;19.10;74.60
42199;DHT22;27868;45.184;5.786;2023-05-10T12:35:31;19.10;74.70
42199;DHT22;27868;45.184;5.786;2023-05-10T12:38:23;19.00;75.10
42199;DHT22;27868;45.184;5.786;2023-05-10T12:41:10;18.90;75.00
42199;DHT22;27868;45.184;5.786;2023-05-10T12:43:54;19.00;72.10
42199;DHT22;27868;45.184;5.786;2023-05-10T12:46:39;18.80;71.00
42199;DHT22;27868;45.184;5.786;2023-05-10T12:49:23;18.80;72.90
42199;DHT22;27868;45.184;5.786;2023-05-10T12:52:08;18.80;71.60
42199;DHT22;27868;45.184;5.786;2023-05-10T12:54:52;18.70;70.40
42199;DHT22;27868;45.184;5.786;2023-05-10T12:57:37;18.60;71.20
42199;DHT22;27868;45.184;5.786;2023-05-10T13:00:22;18.50;71.80
42199;DHT22;27868;45.184;5.786;2023-05-10T13:03:06;18.60;71.70
42199;DHT22;27868;45.184;5.786;2023-05-10T13:05:51;18.40;71.00
42199;DHT22;27868;45.184;5.786;2023-05-10T13:08:35;18.40;72.80
42199;DHT22;27868;45.184;5.786;2023-05-10T13:11:20;18.50;71.20
42199;DHT22;27868;45.184;5.786;2023-05-10T13:14:08;18.60;72.10
42199;DHT22;27868;45.184;5.786;2023-05-10T13:16:52;18.60;70.50
42199;DHT22;27868;45.184;5.786;2023-05-10T13:19:36;18.60;71.20
42199;DHT22;27868;45.184;5.786;2023-05-10T13:22:21;18.60;72.00
42199;DHT22;27868;45.184;5.786;2023-05-10T13:25:05;18.60;70.70
42199;DHT22;27868;45.184;5.786;2023-05-10T13:27:50;18.70;72.40
42199;DHT22;27868;45.184;5.786;2023-05-10T13:30:34;18.70;71.70
42199;DHT22;27868;45.184;5.786;2023-05-10T13:33:19;19.00;69.40
42199;DHT22;27868;45.184;5.786;2023-05-10T13:36:03;19.20;69.80
42199;DHT22;27868;45.184;5.786;2023-05-10T13:38:48;19.30;66.50
42199;DHT22;27868;45.184;5.786;2023-05-10T13:41:32;19.50;70.10
42199;DHT22;27868;45.184;5.786;2023-05-10T13:44:17;19.80;67.90
42199;DHT22;27868;45.184;5.786;2023-05-10T13:47:02;20.10;68.30
42199;DHT22;27868;45.184;5.786;2023-05-10T13:49:46;20.30;66.80
42199;DHT22;27868;45.184;5.786;2023-05-10T13:52:31;20.40;63.00
42199;DHT22;27868;45.184;5.786;2023-05-10T13:55:15;20.30;63.50
42199;DHT22;27868;45.184;5.786;2023-05-10T13:57:59;20.30;64.30
42199;DHT22;27868;45.184;5.786;2023-05-10T14:00:44;20.10;66.00
42199;DHT22;27868;45.184;5.786;2023-05-10T14:03:29;19.90;67.50
42199;DHT22;27868;45.184;5.786;2023-05-10T14:06:13;19.90;68.50
42199;DHT22;27868;45.184;5.786;2023-05-10T14:08:58;19.80;67.90
42199;DHT22;27868;45.184;5.786;2023-05-10T14:11:42;19.80;67.20
42199;DHT22;27868;45.184;5.786;2023-05-10T14:14:27;19.80;69.40
42199;DHT22;27868;45.184;5.786;2023-05-10T14:17:13;19.90;70.20
42199;DHT22;27868;45.184;5.786;2023-05-10T14:19:58;19.90;70.10
42199;DHT22;27868;45.184;5.786;2023-05-10T14:22:42;19.90;70.30
42199;DHT22;27868;45.184;5.786;2023-05-10T14:25:27;19.90;70.20
42199;DHT22;27868;45.184;5.786;2023-05-10T14:28:12;19.80;70.30
42199;DHT22;27868;45.184;5.786;2023-05-10T14:30:56;19.80;66.30
42199;DHT22;27868;45.184;5.786;2023-05-10T14:33:41;19.80;66.40
42199;DHT22;27868;45.184;5.786;2023-05-10T14:36:26;19.80;69.40
42199;DHT22;27868;45.184;5.786;2023-05-10T14:39:11;19.70;68.90
42199;DHT22;27868;45.184;5.786;2023-05-10T14:41:57;19.60;68.50
42199;DHT22;27868;45.184;5.786;2023-05-10T14:44:42;19.50;69.40
42199;DHT22;27868;45.184;5.786;2023-05-10T14:47:27;19.40;70.40
42199;DHT22;27868;45.184;5.786;2023-05-10T14:50:11;19.30;68.80
42199;DHT22;27868;45.184;5.786;2023-05-10T14:52:56;19.40;68.60
42199;DHT22;27868;45.184;5.786;2023-05-10T14:55:40;19.30;68.10
42199;DHT22;27868;45.184;5.786;2023-05-10T14:58:25;19.30;69.30
42199;DHT22;27868;45.184;5.786;2023-05-10T15:01:09;19.40;69.60
42199;DHT22;27868;45.184;5.786;2023-05-10T15:03:54;19.50;70.20
42199;DHT22;27868;45.184;5.786;2023-05-10T15:06:38;19.50;69.80
42199;DHT22;27868;45.184;5.786;2023-05-10T15:09:23;19.60;67.50
42199;DHT22;27868;45.184;5.786;2023-05-10T15:12:07;19.50;68.20
42199;DHT22;27868;45.184;5.786;2023-05-10T15:14:52;19.70;66.40
42199;DHT22;27868;45.184;5.786;2023-05-10T15:17:37;19.70;68.40
42199;DHT22;27868;45.184;5.786;2023-05-10T15:20:21;19.80;68.70
42199;DHT22;27868;45.184;5.786;2023-05-10T15:23:06;19.90;69.00
42199;DHT22;27868;45.184;5.786;2023-05-10T15:25:50;19.90;67.90
42199;DHT22;27868;45.184;5.786;2023-05-10T15:28:39;20.00;68.10
42199;DHT22;27868;45.184;5.786;2023-05-10T15:31:24;20.00;66.00
42199;DHT22;27868;45.184;5.786;2023-05-10T15:34:08;20.00;67.70
42199;DHT22;27868;45.184;5.786;2023-05-10T15:36:53;20.00;67.80
42199;DHT22;27868;45.184;5.786;2023-05-10T15:39:38;20.00;67.80
42199;DHT22;27868;45.184;5.786;2023-05-10T15:42:22;19.80;65.70
42199;DHT22;27868;45.184;5.786;2023-05-10T15:45:07;19.90;66.70
42199;DHT22;27868;45.184;5.786;2023-05-10T15:47:52;19.90;67.60
42199;DHT22;27868;45.184;5.786;2023-05-10T15:50:36;19.90;68.00
42199;DHT22;27868;45.184;5.786;2023-05-10T15:53:21;19.90;66.00
42199;DHT22;27868;45.184;5.786;2023-05-10T15:56:05;20.10;62.10
42199;DHT22;27868;45.184;5.786;2023-05-10T15:58:50;20.00;60.90
42199;DHT22;27868;45.184;5.786;2023-05-10T16:01:34;19.70;60.70
42199;DHT22;27868;45.184;5.786;2023-05-10T16:04:19;19.70;60.90
42199;DHT22;27868;45.184;5.786;2023-05-10T16:07:04;19.70;60.20
42199;DHT22;27868;45.184;5.786;2023-05-10T16:09:49;19.50;61.90
42199;DHT22;27868;45.184;5.786;2023-05-10T16:12:33;19.40;62.40
42199;DHT22;27868;45.184;5.786;2023-05-10T16:15:18;19.50;61.20
42199;DHT22;27868;45.184;5.786;2023-05-10T16:18:03;19.50;62.00
42199;DHT22;27868;45.184;5.786;2023-05-10T16:20:48;19.40;61.40
42199;DHT22;27868;45.184;5.786;2023-05-10T16:23:32;19.40;61.50
42199;DHT22;27868;45.184;5.786;2023-05-10T16:26:17;19.20;61.60
42199;DHT22;27868;45.184;5.786;2023-05-10T16:29:01;19.10;61.50
42199;DHT22;27868;45.184;5.786;2023-05-10T16:31:46;18.90;60.80
42199;DHT22;27868;45.184;5.786;2023-05-10T16:34:30;18.90;62.20
42199;DHT22;27868;45.184;5.786;2023-05-10T16:37:15;18.80;62.20
42199;DHT22;27868;45.184;5.786;2023-05-10T16:39:59;18.90;61.80
42199;DHT22;27868;45.184;5.786;2023-05-10T16:42:44;18.80;62.60
42199;DHT22;27868;45.184;5.786;2023-05-10T16:45:30;18.70;60.80
42199;DHT22;27868;45.184;5.786;2023-05-10T16:48:15;18.70;63.10
42199;DHT22;27868;45.184;5.786;2023-05-10T16:51:01;18.50;62.30
42199;DHT22;27868;45.184;5.786;2023-05-10T16:53:46;18.60;63.40
42199;DHT22;27868;45.184;5.786;2023-05-10T16:56:30;18.50;61.00
42199;DHT22;27868;45.184;5.786;2023-05-10T16:59:15;18.60;63.00
42199;DHT22;27868;45.184;5.786;2023-05-10T17:01:59;18.60;62.60
42199;DHT22;27868;45.184;5.786;2023-05-10T17:04:44;18.60;64.60
42199;DHT22;27868;45.184;5.786;2023-05-10T17:07:28;18.60;65.40
42199;DHT22;27868;45.184;5.786;2023-05-10T17:10:13;18.60;65.20
42199;DHT22;27868;45.184;5.786;2023-05-10T17:12:58;18.60;64.60
42199;DHT22;27868;45.184;5.786;2023-05-10T17:15:44;18.60;65.80
42199;DHT22;27868;45.184;5.786;2023-05-10T17:18:29;18.70;66.20
42199;DHT22;27868;45.184;5.786;2023-05-10T17:21:14;18.60;66.50
42199;DHT22;27868;45.184;5.786;2023-05-10T17:23:59;18.70;66.80
42199;DHT22;27868;45.184;5.786;2023-05-10T17:26:44;18.70;67.20
42199;DHT22;27868;45.184;5.786;2023-05-10T17:29:28;18.70;66.80
42199;DHT22;27868;45.184;5.786;2023-05-10T17:32:15;18.70;67.30
42199;DHT22;27868;45.184;5.786;2023-05-10T17:34:59;18.60;66.70
42199;DHT22;27868;45.184;5.786;2023-05-10T17:37:44;18.50;66.10
42199;DHT22;27868;45.184;5.786;2023-05-10T17:40:29;18.40;65.30
42199;DHT22;27868;45.184;5.786;2023-05-10T17:43:13;18.40;64.10
42199;DHT22;27868;45.184;5.786;2023-05-10T17:45:58;18.40;66.40